Skip Navigation LinksHome page > Weather > Current weather Skip Navigation Links

Current Weather

Indira Gandhi Intl Apt, New Delhi, India

For information only: do not use for flight planning or navigation.
Latest weather
Observation time Tuesday, April 28, 2015 11:00 PM IST
Local time Tuesday, April 28, 2015 11:42 PM IST
Flight conditions Instrument Meteorological Conditions
Winds
Wind direction East-Southeast (120°)
Wind speed 9 mph
Visibility 1.9 mi.
Present weather dust, dust storm
Sky condition
Ceiling unlimited
Cloud layer few clouds 4,000 ft.
Cloud layer scattered clouds 10,000 ft.
Temperature 86°F
Dewpoint 66°F
Altimeter 29.74 in.Hg
Derived measurements
Relative humidity 52%
Heat index 88°F
Density altitude 2993 ft.
METAR VIDP 281730Z 12008KT 3000 DU FEW040 FEW040CB SCT100 30/19 Q1007 TEMPO 06030KT 0800 DS TSRA

Settings

Location code

InnerDrive.Weather 4.0.5567.0 Release CLR 4.0.30319.34014
Copyright ©2015 Inner Drive Technology. All rights reserved. Portions Copyright ©1986-2015 David Braverman.

Find weather

Site navigation


Skip Navigation Links

Place info

Page info

PayPal - The safer, easier way to pay online!

Return home.

Copyright ©2015 Inner Drive Technology. Purveyors of fine, hand-crafted computer software. Page printed 2015-04-28T18:12:46 UTC.